首页
METAR-TAF:

METAR-TAF

机场 :

Macomb Municipal Airport

马克姆, 伊利诺伊州, 美国

纬度: 40-31-13N, 经度: 090-39-09W, 海拔: 216米

当前天气观测

该预报发布于13分钟前的14:35 UTC
风速11节,风向
温度 23°C
湿度 73%
气压 1019 hPa
能見度: 16.1公里
天空无云

METAR: KMQB 221435Z AUTO 01011KT 10SM CLR 23/18 A3008 RMK AO2 T02300179

时间: 09:48 (14:48 UTC)


TAF: 丢失

超过4000个机场的气象观测和天气预报(METAR&TAF报告)。

可查询的气象台以黄色和红色小点在地图上表示。

将鼠标移到小点上方,可查看气象台名称。

然后点击查看天气观测和预报。

如需切换地图:点击带黑十字的绿色按钮放大地图;点击带横线的绿色按钮缩小地图;或者点击绿色箭头查看邻近地区的地图。


METAR-TAF: